Time;durP1;ratioP1;P1;durP2;ratioP2;P2;SDS_P1;SDS_P2;PMS_P1;PMS_P2;Temp;Humidity;BMP_temperature;BMP_pressure;BME280_temperature;BME280_humidity;BME280_pressure;Samples;Min_cycle;Max_cycle;Signal;HPM_P1;HPM_P2
2021/06/24 00:00:50;;;;;;;6.43;4.10;;;;;;;;;;4966946;28;20188;-58
2021/06/24 00:03:17;;;;;;;6.13;3.60;;;;;;;;;;4970538;28;20210;-58
2021/06/24 00:05:43;;;;;;;6.70;3.93;;;;;;;;;;4968177;28;20304;-58
2021/06/24 00:08:13;;;;;;;4.90;4.40;;;;;;;;;;4968302;28;20230;-61
2021/06/24 00:10:41;;;;;;;3.97;3.67;;;;;;;;;;4970156;28;20180;-59
2021/06/24 00:13:07;;;;;;;4.13;3.70;;;;;;;;;;4968999;28;20661;-58
2021/06/24 00:15:34;;;;;;;3.70;3.40;;;;;;;;;;4970185;28;20179;-58
2021/06/24 00:18:00;;;;;;;6.77;4.07;;;;;;;;;;4970334;28;20584;-58
2021/06/24 00:20:26;;;;;;;6.63;4.30;;;;;;;;;;4968928;28;20184;-58
2021/06/24 00:22:53;;;;;;;7.20;4.10;;;;;;;;;;4970092;28;20207;-60
2021/06/24 00:25:19;;;;;;;4.57;4.17;;;;;;;;;;4967030;28;20509;-58
2021/06/24 00:27:45;;;;;;;4.90;4.00;;;;;;;;;;4970325;28;20300;-60
2021/06/24 00:30:12;;;;;;;5.93;3.90;;;;;;;;;;4955106;28;20186;-59
2021/06/24 00:32:39;;;;;;;4.57;4.03;;;;;;;;;;4957286;28;20287;-58
2021/06/24 00:35:05;;;;;;;4.73;3.80;;;;;;;;;;4972756;28;20218;-59
2021/06/24 00:37:32;;;;;;;4.47;3.60;;;;;;;;;;4973298;28;20797;-59
2021/06/24 00:39:58;;;;;;;4.37;3.97;;;;;;;;;;4973468;28;20246;-60
2021/06/24 00:42:26;;;;;;;4.17;3.87;;;;;;;;;;4972788;28;20215;-61
2021/06/24 00:44:53;;;;;;;5.00;4.03;;;;;;;;;;4973317;28;20238;-58
2021/06/24 00:47:19;;;;;;;5.53;4.77;;;;;;;;;;4973929;28;20194;-58
2021/06/24 00:49:45;;;;;;;6.63;4.53;;;;;;;;;;4971540;28;20658;-58
2021/06/24 00:52:11;;;;;;;4.47;4.00;;;;;;;;;;4973324;28;20201;-57
2021/06/24 00:54:38;;;;;;;4.67;4.27;;;;;;;;;;4955630;28;20755;-59
2021/06/24 00:57:06;;;;;;;3.83;3.53;;;;;;;;;;4972970;28;20384;-61
2021/06/24 00:59:33;;;;;;;4.37;3.97;;;;;;;;;;4972867;28;20194;-58
2021/06/24 01:01:59;;;;;;;7.17;4.43;;;;;;;;;;4954968;28;20193;-58
2021/06/24 01:04:25;;;;;;;9.37;4.57;;;;;;;;;;4972014;28;20234;-61
2021/06/24 01:06:51;;;;;;;5.07;4.00;;;;;;;;;;4955122;28;20209;-58
2021/06/24 01:09:18;;;;;;;4.97;4.07;;;;;;;;;;4970841;28;20212;-58
2021/06/24 01:11:44;;;;;;;4.90;4.43;;;;;;;;;;4973167;28;20226;-58
2021/06/24 01:14:10;;;;;;;5.00;4.10;;;;;;;;;;4986992;28;20647;-59
2021/06/24 01:16:37;;;;;;;4.40;3.77;;;;;;;;;;4972823;28;20262;-57
2021/06/24 01:19:04;;;;;;;5.20;4.43;;;;;;;;;;4971820;28;20183;-59
2021/06/24 01:21:30;;;;;;;4.67;3.90;;;;;;;;;;4954347;28;20647;-61
2021/06/24 01:23:57;;;;;;;6.57;4.40;;;;;;;;;;4972087;28;20737;-57
2021/06/24 01:26:23;;;;;;;4.30;3.90;;;;;;;;;;4972415;28;20191;-58
2021/06/24 01:28:49;;;;;;;5.13;4.10;;;;;;;;;;4970209;28;20656;-58
2021/06/24 01:31:16;;;;;;;6.77;4.40;;;;;;;;;;4972728;28;20183;-59
2021/06/24 01:33:42;;;;;;;4.80;4.40;;;;;;;;;;4971687;28;20184;-58
2021/06/24 01:36:08;;;;;;;6.80;4.87;;;;;;;;;;4970500;28;20620;-60
2021/06/24 01:38:35;;;;;;;4.50;4.10;;;;;;;;;;4954878;28;20705;-58
2021/06/24 01:41:01;;;;;;;4.97;4.53;;;;;;;;;;4974689;28;20279;-59
2021/06/24 01:43:27;;;;;;;5.33;4.40;;;;;;;;;;4969858;28;20262;-58
2021/06/24 01:45:54;;;;;;;6.70;4.30;;;;;;;;;;4972132;28;20176;-58
2021/06/24 01:48:21;;;;;;;4.47;4.03;;;;;;;;;;4972008;28;20188;-61
2021/06/24 01:50:48;;;;;;;4.80;4.40;;;;;;;;;;4971069;28;20180;-58
2021/06/24 01:53:14;;;;;;;5.50;4.30;;;;;;;;;;4971890;28;20195;-57
2021/06/24 01:55:41;;;;;;;7.00;5.10;;;;;;;;;;4938326;28;20220;-58
2021/06/24 01:58:08;;;;;;;6.27;4.30;;;;;;;;;;4971034;28;20649;-59
2021/06/24 02:00:34;;;;;;;5.43;4.20;;;;;;;;;;4966456;28;20190;-57
2021/06/24 02:03:02;;;;;;;5.13;4.63;;;;;;;;;;4970801;28;20590;-61
2021/06/24 02:05:28;;;;;;;5.70;4.43;;;;;;;;;;4970302;28;20303;-59
2021/06/24 02:07:54;;;;;;;5.17;4.20;;;;;;;;;;4971737;28;20239;-59
2021/06/24 02:10:20;;;;;;;6.23;4.10;;;;;;;;;;4971140;28;20638;-59
2021/06/24 02:12:46;;;;;;;4.27;3.97;;;;;;;;;;4970531;28;20227;-60
2021/06/24 02:15:13;;;;;;;5.37;4.87;;;;;;;;;;4971013;28;20188;-59
2021/06/24 02:17:39;;;;;;;5.90;4.20;;;;;;;;;;4971575;28;20195;-60
2021/06/24 02:20:06;;;;;;;6.10;4.67;;;;;;;;;;4969997;28;20199;-59
2021/06/24 02:22:32;;;;;;;5.30;4.40;;;;;;;;;;4970893;28;20282;-58
2021/06/24 02:24:59;;;;;;;7.47;4.40;;;;;;;;;;4971030;28;20199;-59
2021/06/24 02:27:25;;;;;;;4.93;4.43;;;;;;;;;;4970299;28;20231;-59
2021/06/24 02:29:51;;;;;;;5.53;4.53;;;;;;;;;;4970963;28;20184;-58
2021/06/24 02:32:17;;;;;;;7.47;3.90;;;;;;;;;;4974455;28;20190;-59
2021/06/24 02:34:46;;;;;;;5.60;4.10;;;;;;;;;;4975138;28;20192;-58
2021/06/24 02:37:12;;;;;;;6.47;4.10;;;;;;;;;;4970201;28;20195;-59
2021/06/24 02:39:38;;;;;;;5.03;4.03;;;;;;;;;;4953796;28;20196;-57
2021/06/24 02:42:04;;;;;;;4.60;4.20;;;;;;;;;;4953465;28;20637;-57
2021/06/24 02:44:31;;;;;;;4.67;4.13;;;;;;;;;;4970504;28;20186;-58
2021/06/24 02:46:57;;;;;;;7.30;4.50;;;;;;;;;;4971050;28;20188;-61
2021/06/24 02:49:23;;;;;;;5.30;4.60;;;;;;;;;;4985076;28;20601;-61
2021/06/24 02:51:49;;;;;;;7.17;4.70;;;;;;;;;;4971748;28;20176;-58
2021/06/24 02:54:16;;;;;;;6.10;4.63;;;;;;;;;;4953334;28;20183;-58
2021/06/24 02:56:42;;;;;;;7.03;5.07;;;;;;;;;;4971285;28;20274;-60
2021/06/24 02:59:09;;;;;;;5.67;5.00;;;;;;;;;;4971089;28;20192;-57
2021/06/24 03:01:35;;;;;;;6.97;5.30;;;;;;;;;;4971578;28;20180;-59
2021/06/24 03:04:01;;;;;;;6.03;4.50;;;;;;;;;;4970592;28;20210;-59
2021/06/24 03:06:27;;;;;;;4.63;4.23;;;;;;;;;;4970195;28;20210;-60
2021/06/24 03:08:53;;;;;;;5.20;4.70;;;;;;;;;;4984828;28;20216;-58
2021/06/24 03:11:20;;;;;;;6.43;5.00;;;;;;;;;;4971225;28;20172;-62
2021/06/24 03:13:49;;;;;;;6.60;5.07;;;;;;;;;;4952889;28;20713;-59
2021/06/24 03:16:15;;;;;;;5.87;5.23;;;;;;;;;;4971119;28;20176;-58
2021/06/24 03:18:41;;;;;;;5.07;4.57;;;;;;;;;;4970405;28;20187;-59
2021/06/24 03:21:07;;;;;;;5.10;4.47;;;;;;;;;;4953632;28;20188;-59
2021/06/24 03:23:33;;;;;;;6.60;4.97;;;;;;;;;;4953156;28;20215;-61
2021/06/24 03:25:59;;;;;;;5.90;5.30;;;;;;;;;;4971597;28;20634;-58
2021/06/24 03:28:25;;;;;;;6.30;5.10;;;;;;;;;;4970292;28;20200;-58
2021/06/24 03:30:51;;;;;;;5.83;4.40;;;;;;;;;;4970582;28;20180;-58
2021/06/24 03:33:18;;;;;;;6.53;4.70;;;;;;;;;;4971131;28;20187;-61
2021/06/24 03:35:47;;;;;;;5.37;4.37;;;;;;;;;;4969308;28;20187;-58
2021/06/24 03:38:13;;;;;;;4.97;4.50;;;;;;;;;;4953070;28;20187;-57
2021/06/24 03:40:39;;;;;;;5.57;4.50;;;;;;;;;;4970827;28;20191;-58
2021/06/24 03:43:05;;;;;;;6.20;4.80;;;;;;;;;;4969069;28;20231;-59
2021/06/24 03:45:32;;;;;;;6.00;4.43;;;;;;;;;;4970855;28;20193;-58
2021/06/24 03:47:58;;;;;;;6.07;5.20;;;;;;;;;;4986101;28;20242;-61
2021/06/24 03:50:24;;;;;;;5.47;4.63;;;;;;;;;;4968137;28;20522;-59
2021/06/24 03:52:50;;;;;;;5.37;4.87;;;;;;;;;;4970352;28;20219;-58
2021/06/24 03:55:17;;;;;;;5.63;4.90;;;;;;;;;;4970496;28;20191;-57
2021/06/24 03:57:44;;;;;;;5.80;4.93;;;;;;;;;;4970218;28;20183;-60
2021/06/24 04:00:10;;;;;;;7.70;4.87;;;;;;;;;;4970507;28;20661;-58
2021/06/24 04:02:36;;;;;;;7.23;5.10;;;;;;;;;;4977519;28;20224;-58
2021/06/24 04:05:02;;;;;;;6.83;5.03;;;;;;;;;;4951313;29;20703;-58
2021/06/24 04:07:28;;;;;;;5.63;5.13;;;;;;;;;;4965506;28;20226;-61
2021/06/24 04:09:54;;;;;;;6.13;5.13;;;;;;;;;;4974642;28;20182;-57
2021/06/24 04:12:20;;;;;;;5.23;4.73;;;;;;;;;;4974346;28;20192;-59
2021/06/24 04:14:47;;;;;;;5.43;4.90;;;;;;;;;;4974212;28;20198;-58
2021/06/24 04:17:13;;;;;;;6.40;5.27;;;;;;;;;;4973695;28;20183;-58
2021/06/24 04:19:39;;;;;;;6.47;4.60;;;;;;;;;;4973821;28;20197;-59
2021/06/24 04:22:05;;;;;;;6.20;5.40;;;;;;;;;;4974506;28;20214;-57
2021/06/24 04:24:31;;;;;;;6.87;4.83;;;;;;;;;;4974245;28;20492;-59
2021/06/24 04:26:57;;;;;;;5.27;4.77;;;;;;;;;;4974356;28;20182;-58
2021/06/24 04:29:23;;;;;;;5.77;5.00;;;;;;;;;;4974052;28;20195;-58
2021/06/24 04:31:49;;;;;;;7.00;5.00;;;;;;;;;;4968904;28;20238;-61
2021/06/24 04:34:15;;;;;;;6.90;5.07;;;;;;;;;;4972655;28;20541;-58
2021/06/24 04:36:43;;;;;;;7.40;5.70;;;;;;;;;;4973307;28;20188;-60
2021/06/24 04:39:10;;;;;;;5.47;4.87;;;;;;;;;;4974291;28;20578;-58
2021/06/24 04:41:36;;;;;;;6.03;5.20;;;;;;;;;;4973475;28;20271;-57
2021/06/24 04:44:03;;;;;;;6.63;5.47;;;;;;;;;;4974100;28;20199;-57
2021/06/24 04:46:29;;;;;;;8.13;5.53;;;;;;;;;;4974338;28;20645;-59
2021/06/24 04:48:55;;;;;;;6.30;5.43;;;;;;;;;;4971706;28;20198;-57
2021/06/24 04:51:21;;;;;;;6.63;5.77;;;;;;;;;;4968483;28;20294;-58
2021/06/24 04:53:47;;;;;;;6.17;5.10;;;;;;;;;;4972623;28;20262;-58
2021/06/24 04:56:13;;;;;;;8.90;5.57;;;;;;;;;;4955727;28;20635;-58
2021/06/24 04:58:39;;;;;;;5.83;5.20;;;;;;;;;;4972879;28;20350;-57
2021/06/24 05:01:05;;;;;;;8.40;5.40;;;;;;;;;;4973180;28;20271;-58
2021/06/24 05:03:31;;;;;;;6.87;5.03;;;;;;;;;;4972998;28;21062;-57
2021/06/24 05:05:57;;;;;;;6.33;4.97;;;;;;;;;;4976996;28;20318;-57
2021/06/24 05:08:27;;;;;;;6.40;5.80;;;;;;;;;;4971934;28;20220;-61
2021/06/24 05:10:53;;;;;;;5.83;5.33;;;;;;;;;;4970112;28;20520;-58
2021/06/24 05:13:19;;;;;;;6.77;5.77;;;;;;;;;;4970580;28;20638;-57
2021/06/24 05:15:45;;;;;;;7.35;5.80;;;;;;;;;;4979421;28;20776;-57
2021/06/24 05:18:12;;;;;;;5.53;5.03;;;;;;;;;;4977438;28;20708;-61
2021/06/24 05:20:41;;;;;;;5.90;5.13;;;;;;;;;;4953741;28;20184;-57
2021/06/24 05:23:08;;;;;;;8.07;5.47;;;;;;;;;;4972407;28;20283;-57
2021/06/24 05:25:34;;;;;;;7.13;6.43;;;;;;;;;;4972132;28;20183;-58
2021/06/24 05:28:00;;;;;;;6.47;5.57;;;;;;;;;;4968721;28;20180;-59
2021/06/24 05:30:26;;;;;;;9.17;5.33;;;;;;;;;;4963299;28;20648;-57
2021/06/24 05:32:52;;;;;;;6.80;5.70;;;;;;;;;;4972766;28;20187;-59
2021/06/24 05:35:18;;;;;;;8.03;6.07;;;;;;;;;;4970998;28;20274;-59
2021/06/24 05:37:44;;;;;;;5.80;5.07;;;;;;;;;;4967067;28;20271;-58
2021/06/24 05:40:10;;;;;;;7.53;5.63;;;;;;;;;;4971232;28;20721;-58
2021/06/24 05:42:36;;;;;;;6.17;5.20;;;;;;;;;;4970770;28;20286;-56
2021/06/24 05:45:03;;;;;;;6.90;6.20;;;;;;;;;;4973199;28;20187;-59
2021/06/24 05:47:29;;;;;;;7.07;6.27;;;;;;;;;;4969486;28;20194;-58
2021/06/24 05:49:55;;;;;;;7.47;6.67;;;;;;;;;;4971392;28;20187;-61
2021/06/24 05:52:21;;;;;;;7.47;6.43;;;;;;;;;;4971903;28;20184;-58
2021/06/24 05:54:47;;;;;;;8.17;7.37;;;;;;;;;;4954626;28;20617;-59
2021/06/24 05:57:13;;;;;;;9.90;7.10;;;;;;;;;;4963101;28;20234;-59
2021/06/24 05:59:39;;;;;;;7.90;6.83;;;;;;;;;;4955492;28;20186;-58
2021/06/24 06:02:05;;;;;;;7.67;6.87;;;;;;;;;;4984517;28;20183;-59
2021/06/24 06:04:31;;;;;;;8.93;6.60;;;;;;;;;;4971528;28;20172;-60
2021/06/24 06:06:57;;;;;;;8.07;7.27;;;;;;;;;;4970854;28;20200;-59
2021/06/24 06:09:23;;;;;;;10.70;7.57;;;;;;;;;;4970329;28;20694;-58
2021/06/24 06:11:49;;;;;;;8.37;7.50;;;;;;;;;;4970325;28;20213;-59
2021/06/24 06:14:15;;;;;;;8.53;6.67;;;;;;;;;;4970619;28;20183;-61
2021/06/24 06:16:44;;;;;;;8.23;7.33;;;;;;;;;;4971540;28;20196;-59
2021/06/24 06:19:10;;;;;;;7.83;7.03;;;;;;;;;;4970983;28;20191;-61
2021/06/24 06:21:36;;;;;;;8.83;6.93;;;;;;;;;;4970675;28;20181;-59
2021/06/24 06:24:03;;;;;;;8.47;7.33;;;;;;;;;;4972314;28;20629;-59
2021/06/24 06:26:29;;;;;;;8.90;7.10;;;;;;;;;;4967903;28;20187;-58
2021/06/24 06:28:55;;;;;;;11.30;8.17;;;;;;;;;;4952517;28;20271;-59
2021/06/24 06:31:23;;;;;;;9.67;7.53;;;;;;;;;;4974472;28;20176;-60
2021/06/24 06:33:49;;;;;;;11.50;8.43;;;;;;;;;;4969615;28;20191;-59
2021/06/24 06:36:15;;;;;;;9.73;7.30;;;;;;;;;;4964244;28;20180;-58
2021/06/24 06:38:41;;;;;;;9.37;8.43;;;;;;;;;;4970885;28;20179;-60
2021/06/24 06:41:08;;;;;;;11.83;8.00;;;;;;;;;;4970720;28;20191;-59
2021/06/24 06:43:34;;;;;;;11.17;7.97;;;;;;;;;;4969692;28;20200;-58
2021/06/24 06:46:00;;;;;;;9.10;8.13;;;;;;;;;;4971706;28;20678;-58
2021/06/24 06:48:26;;;;;;;8.97;7.70;;;;;;;;;;4965569;28;20181;-61
2021/06/24 06:50:52;;;;;;;8.30;7.40;;;;;;;;;;4970481;28;20176;-58
2021/06/24 06:53:18;;;;;;;10.70;7.83;;;;;;;;;;4969481;28;20634;-58
2021/06/24 06:55:46;;;;;;;10.50;7.80;;;;;;;;;;4953762;28;20305;-60
2021/06/24 06:58:12;;;;;;;8.57;7.77;;;;;;;;;;4970263;28;20670;-59
2021/06/24 07:00:38;;;;;;;10.03;8.37;;;;;;;;;;4971009;28;20203;-58
2021/06/24 07:03:04;;;;;;;10.03;8.47;;;;;;;;;;4968740;28;20212;-60
2021/06/24 07:05:30;;;;;;;10.90;9.80;;;;;;;;;;4969653;28;20638;-57
2021/06/24 07:07:57;;;;;;;12.03;9.13;;;;;;;;;;4971040;28;20923;-57
2021/06/24 07:10:23;;;;;;;10.43;9.17;;;;;;;;;;4967286;28;20188;-60
2021/06/24 07:12:49;;;;;;;11.10;9.60;;;;;;;;;;4971146;28;20176;-58
2021/06/24 07:15:15;;;;;;;11.47;10.27;;;;;;;;;;4969048;28;20590;-57
2021/06/24 07:17:41;;;;;;;11.20;9.60;;;;;;;;;;4953240;28;20255;-58
2021/06/24 07:20:08;;;;;;;11.87;10.30;;;;;;;;;;4955383;28;20657;-59
2021/06/24 07:22:34;;;;;;;12.53;11.27;;;;;;;;;;4950327;29;20196;-59
2021/06/24 07:25:00;;;;;;;14.07;12.27;;;;;;;;;;4965541;28;20189;-59
2021/06/24 07:27:26;;;;;;;18.07;12.87;;;;;;;;;;4970807;28;20187;-57
2021/06/24 07:29:52;;;;;;;14.67;11.60;;;;;;;;;;4970265;28;20176;-58
2021/06/24 07:32:19;;;;;;;12.97;10.93;;;;;;;;;;4968764;28;20546;-58
2021/06/24 07:34:45;;;;;;;10.83;9.73;;;;;;;;;;4952285;28;20207;-58
2021/06/24 07:37:11;;;;;;;11.13;9.93;;;;;;;;;;4969947;28;20254;-59
2021/06/24 07:39:37;;;;;;;10.57;9.47;;;;;;;;;;4970778;28;20673;-60
2021/06/24 07:42:03;;;;;;;12.33;10.63;;;;;;;;;;4970112;28;20194;-60
2021/06/24 07:44:29;;;;;;;12.47;9.80;;;;;;;;;;4969914;28;20290;-58
2021/06/24 07:46:56;;;;;;;11.77;10.53;;;;;;;;;;4970705;28;20244;-58
2021/06/24 07:49:22;;;;;;;15.73;11.77;;;;;;;;;;4970195;28;20259;-59
2021/06/24 07:51:48;;;;;;;12.27;11.07;;;;;;;;;;4953571;28;20192;-59
2021/06/24 07:54:15;;;;;;;12.60;11.23;;;;;;;;;;4970485;28;20267;-59
2021/06/24 07:56:41;;;;;;;11.70;10.57;;;;;;;;;;4953505;28;20241;-57
2021/06/24 07:59:11;;;;;;;13.07;11.53;;;;;;;;;;4970579;28;20219;-58
2021/06/24 08:01:37;;;;;;;15.00;12.00;;;;;;;;;;4970814;28;20187;-58
2021/06/24 08:04:06;;;;;;;13.80;11.77;;;;;;;;;;4970282;28;20234;-58
2021/06/24 08:06:32;;;;;;;12.90;11.57;;;;;;;;;;4952768;28;20211;-57
2021/06/24 08:08:58;;;;;;;14.77;12.53;;;;;;;;;;4958205;28;20786;-58
2021/06/24 08:11:24;;;;;;;15.00;13.20;;;;;;;;;;4951072;29;20181;-59
2021/06/24 08:13:50;;;;;;;16.00;13.47;;;;;;;;;;4951010;29;20244;-59
2021/06/24 08:16:16;;;;;;;14.80;12.80;;;;;;;;;;4951496;29;20587;-59
2021/06/24 08:18:43;;;;;;;16.97;13.70;;;;;;;;;;4951128;29;20180;-58
2021/06/24 08:21:09;;;;;;;15.67;13.27;;;;;;;;;;4933804;29;20267;-58
2021/06/24 08:23:37;;;;;;;17.60;13.83;;;;;;;;;;4951155;29;20216;-57
2021/06/24 08:26:04;;;;;;;15.63;14.03;;;;;;;;;;4951413;29;20600;-60
2021/06/24 08:28:30;;;;;;;16.90;15.10;;;;;;;;;;4950930;29;20252;-58
2021/06/24 08:30:59;;;;;;;16.67;14.10;;;;;;;;;;4951107;29;20620;-59
2021/06/24 08:33:25;;;;;;;16.73;15.07;;;;;;;;;;4951242;29;20177;-58
2021/06/24 08:35:51;;;;;;;16.90;14.70;;;;;;;;;;4950169;29;20247;-59
2021/06/24 08:38:18;;;;;;;15.93;14.30;;;;;;;;;;4951316;29;20552;-57
2021/06/24 08:40:44;;;;;;;16.07;14.47;;;;;;;;;;4951094;29;20169;-60
2021/06/24 08:43:10;;;;;;;16.97;15.33;;;;;;;;;;4950349;29;20207;-59
2021/06/24 08:45:40;;;;;;;17.23;14.13;;;;;;;;;;4933732;29;20190;-59
2021/06/24 08:48:15;;;;;;;15.97;14.37;;;;;;;;;;4951329;28;20228;-59
2021/06/24 08:50:46;;;;;;;17.47;15.80;;;;;;;;;;4935536;29;20901;-58
2021/06/24 08:53:12;;;;;;;17.27;15.67;;;;;;;;;;4954593;29;20168;-59
2021/06/24 08:55:43;;;;;;;18.33;15.73;;;;;;;;;;4954229;29;20246;-59
2021/06/24 08:58:09;;;;;;;16.67;14.97;;;;;;;;;;4945827;28;20659;-60
2021/06/24 09:00:35;;;;;;;16.57;14.97;;;;;;;;;;4936279;29;20195;-59
2021/06/24 09:03:15;;;;;;;17.53;15.37;;;;;;;;;;4953965;29;20656;-59
2021/06/24 09:05:48;;;;;;;16.13;14.53;;;;;;;;;;4953243;29;20191;-59
2021/06/24 09:08:22;;;;;;;17.90;16.00;;;;;;;;;;4958596;28;20588;-60
2021/06/24 09:11:07;;;;;;;16.23;14.83;;;;;;;;;;4973223;28;20182;-61
2021/06/24 09:13:33;;;;;;;18.20;16.30;;;;;;;;;;4972756;28;20171;-61
2021/06/24 09:16:05;;;;;;;17.93;16.03;;;;;;;;;;4972587;28;20243;-62
2021/06/24 09:18:31;;;;;;;18.77;16.57;;;;;;;;;;4973264;28;20187;-57
2021/06/24 09:20:57;;;;;;;17.23;15.60;;;;;;;;;;4972271;28;20551;-58
2021/06/24 09:23:24;;;;;;;19.30;17.30;;;;;;;;;;4972791;28;20202;-59
2021/06/24 09:26:07;;;;;;;18.80;17.00;;;;;;;;;;4973189;28;20593;-58
2021/06/24 09:28:37;;;;;;;17.87;16.27;;;;;;;;;;4970906;28;20264;-59
2021/06/24 09:31:03;;;;;;;18.60;16.90;;;;;;;;;;4972811;28;20185;-60
2021/06/24 09:33:38;;;;;;;19.83;17.20;;;;;;;;;;4971813;28;20194;-59
2021/06/24 09:36:04;;;;;;;17.30;15.70;;;;;;;;;;4972520;28;20263;-61
2021/06/24 09:38:40;;;;;;;18.50;16.80;;;;;;;;;;4972343;28;20650;-58
2021/06/24 09:41:14;;;;;;;19.00;17.30;;;;;;;;;;4972719;28;20171;-56
2021/06/24 09:43:42;;;;;;;19.10;16.13;;;;;;;;;;4955208;28;20207;-58
2021/06/24 09:46:16;;;;;;;18.23;16.57;;;;;;;;;;4972808;28;20187;-57
2021/06/24 09:48:46;;;;;;;17.60;16.07;;;;;;;;;;4972116;28;20581;-57
2021/06/24 09:51:21;;;;;;;18.27;16.47;;;;;;;;;;4971694;28;20183;-58
2021/06/24 09:53:50;;;;;;;20.37;17.97;;;;;;;;;;4971677;28;20618;-57
2021/06/24 09:56:22;;;;;;;18.80;16.97;;;;;;;;;;4973372;28;20176;-57
2021/06/24 09:58:49;;;;;;;19.93;17.83;;;;;;;;;;4971746;28;20179;-57
2021/06/24 10:01:35;;;;;;;20.07;18.07;;;;;;;;;;4969637;28;20644;-57
2021/06/24 10:04:02;;;;;;;18.53;16.83;;;;;;;;;;4972690;28;20646;-58
2021/06/24 10:06:29;;;;;;;17.43;15.83;;;;;;;;;;4970023;28;20201;-56
2021/06/24 10:08:55;;;;;;;18.77;16.90;;;;;;;;;;4961370;28;20292;-60
2021/06/24 10:11:23;;;;;;;18.83;16.97;;;;;;;;;;4952541;28;20176;-58
2021/06/24 10:13:49;;;;;;;18.43;16.57;;;;;;;;;;4952383;29;20192;-58
2021/06/24 10:16:16;;;;;;;18.07;16.27;;;;;;;;;;4952615;29;20262;-59
2021/06/24 10:18:45;;;;;;;16.47;14.97;;;;;;;;;;4934223;29;20565;-58
2021/06/24 10:21:11;;;;;;;17.53;15.83;;;;;;;;;;4934519;29;20329;-58
2021/06/24 10:23:39;;;;;;;16.87;15.33;;;;;;;;;;4950752;28;20304;-57
2021/06/24 10:26:05;;;;;;;17.60;15.70;;;;;;;;;;4947271;29;20207;-60
2021/06/24 10:28:31;;;;;;;17.60;16.00;;;;;;;;;;4949824;29;20205;-58
2021/06/24 10:30:57;;;;;;;20.80;17.07;;;;;;;;;;4950906;29;20185;-58
2021/06/24 10:33:23;;;;;;;16.93;15.27;;;;;;;;;;4949182;28;20605;-59
2021/06/24 10:35:53;;;;;;;16.43;14.83;;;;;;;;;;4932032;28;20182;-58
2021/06/24 10:38:21;;;;;;;15.90;14.23;;;;;;;;;;4961022;28;20209;-58
2021/06/24 10:40:58;;;;;;;16.10;14.73;;;;;;;;;;4958857;28;20184;-57
2021/06/24 10:43:24;;;;;;;16.70;15.20;;;;;;;;;;4957210;28;20723;-58
2021/06/24 10:46:10;;;;;;;16.17;14.70;;;;;;;;;;4959322;28;20172;-61
2021/06/24 10:48:36;;;;;;;15.33;13.90;;;;;;;;;;4935934;29;20197;-59
2021/06/24 10:51:04;;;;;;;14.87;13.37;;;;;;;;;;4951883;29;20261;-59
2021/06/24 10:53:30;;;;;;;16.00;14.53;;;;;;;;;;4951635;29;20210;-58
2021/06/24 10:55:56;;;;;;;15.43;13.83;;;;;;;;;;4951630;29;20198;-60
2021/06/24 10:58:26;;;;;;;15.30;13.90;;;;;;;;;;4951216;28;20244;-59
2021/06/24 11:00:56;;;;;;;14.93;13.63;;;;;;;;;;4952261;29;20225;-57
2021/06/24 11:03:31;;;;;;;17.00;15.30;;;;;;;;;;4951016;29;20201;-58
2021/06/24 11:06:13;;;;;;;14.10;12.83;;;;;;;;;;4933781;28;20186;-59
2021/06/24 11:08:40;;;;;;;13.83;12.63;;;;;;;;;;4958872;28;20215;-58
2021/06/24 11:11:07;;;;;;;13.60;12.50;;;;;;;;;;4971701;28;20204;-59
2021/06/24 11:13:54;;;;;;;14.93;13.43;;;;;;;;;;4969367;28;20704;-59
2021/06/24 11:16:26;;;;;;;14.23;13.03;;;;;;;;;;4969112;28;20192;-58
2021/06/24 11:18:55;;;;;;;14.50;13.00;;;;;;;;;;4970488;28;20640;-58
2021/06/24 11:21:33;;;;;;;13.20;12.07;;;;;;;;;;4970038;28;20638;-59
2021/06/24 11:24:08;;;;;;;16.67;12.90;;;;;;;;;;4970887;28;20207;-59
2021/06/24 11:26:35;;;;;;;13.50;12.30;;;;;;;;;;4972014;28;20180;-58
2021/06/24 11:34:33;;;;;;;12.73;11.57;;;;;;;;;;4971683;28;20184;-58
2021/06/24 11:37:01;;;;;;;12.77;11.47;;;;;;;;;;4971060;28;20275;-60
2021/06/24 11:39:35;;;;;;;11.83;10.73;;;;;;;;;;4971248;28;20188;-58
2021/06/24 11:42:05;;;;;;;13.67;12.30;;;;;;;;;;4970296;28;20198;-58
2021/06/24 11:44:33;;;;;;;13.00;11.87;;;;;;;;;;4970894;28;20228;-58
2021/06/24 11:47:00;;;;;;;11.83;10.67;;;;;;;;;;4971651;28;20534;-57
2021/06/24 11:49:36;;;;;;;11.87;10.70;;;;;;;;;;4969176;28;20587;-58
2021/06/24 12:01:14;;;;;;;12.03;10.43;;;;;;;;;;4970731;28;20263;-62
2021/06/24 12:03:34;;;;;;;9.50;8.70;;;;;;;;;;4969611;28;20241;-59
2021/06/24 12:06:01;;;;;;;9.73;8.83;;;;;;;;;;4970191;28;20652;-61
2021/06/24 12:08:28;;;;;;;10.07;9.27;;;;;;;;;;4963931;28;20241;-60
2021/06/24 12:11:07;;;;;;;9.47;8.60;;;;;;;;;;4950674;29;20202;-58
2021/06/24 12:13:34;;;;;;;10.13;9.03;;;;;;;;;;4950370;29;20189;-58
2021/06/24 12:16:01;;;;;;;9.63;8.77;;;;;;;;;;4967065;28;20208;-60
2021/06/24 12:18:40;;;;;;;9.60;7.93;;;;;;;;;;4951171;28;20193;-59
2021/06/24 12:21:07;;;;;;;9.63;8.83;;;;;;;;;;4951427;29;20193;-59
2021/06/24 12:23:40;;;;;;;9.63;8.83;;;;;;;;;;4934637;29;21323;-58
2021/06/24 12:26:07;;;;;;;9.73;8.83;;;;;;;;;;4936866;29;20200;-60
2021/06/24 12:28:33;;;;;;;8.67;7.87;;;;;;;;;;4953053;29;20200;-60
2021/06/24 12:30:59;;;;;;;9.50;8.33;;;;;;;;;;4954099;29;20706;-58
2021/06/24 12:33:27;;;;;;;9.43;8.50;;;;;;;;;;4953950;29;20335;-59
2021/06/24 12:35:53;;;;;;;10.43;8.67;;;;;;;;;;4951576;28;20568;-59
2021/06/24 12:38:22;;;;;;;8.27;7.50;;;;;;;;;;4928891;29;20186;-59
2021/06/24 12:40:50;;;;;;;8.30;7.60;;;;;;;;;;4962618;28;20193;-57
2021/06/24 12:43:19;;;;;;;8.47;7.67;;;;;;;;;;4953262;29;20567;-58
2021/06/24 12:45:46;;;;;;;8.90;8.00;;;;;;;;;;4951545;29;20184;-58
2021/06/24 12:48:30;;;;;;;7.97;7.27;;;;;;;;;;4954258;29;20175;-59
2021/06/24 12:50:58;;;;;;;8.23;7.33;;;;;;;;;;4953886;29;20184;-58
2021/06/24 12:53:41;;;;;;;7.43;6.77;;;;;;;;;;4953559;29;20564;-59
2021/06/24 12:56:25;;;;;;;8.20;7.50;;;;;;;;;;4955166;29;20275;-59
2021/06/24 12:58:53;;;;;;;10.60;8.77;;;;;;;;;;4953808;29;20185;-59
2021/06/24 13:01:20;;;;;;;10.80;7.10;;;;;;;;;;4950660;29;20197;-59
2021/06/24 13:03:46;;;;;;;8.80;8.00;;;;;;;;;;4954042;29;20200;-58
2021/06/24 13:06:20;;;;;;;8.77;8.00;;;;;;;;;;4953165;28;20589;-58
2021/06/24 13:09:05;;;;;;;8.43;7.60;;;;;;;;;;4941689;29;20219;-59
2021/06/24 13:11:33;;;;;;;8.57;7.77;;;;;;;;;;4954167;29;20205;-59
2021/06/24 13:14:01;;;;;;;9.65;8.77;;;;;;;;;;4952576;29;20940;-59
2021/06/24 13:16:36;;;;;;;8.10;7.30;;;;;;;;;;4952520;29;20340;-59
2021/06/24 13:19:20;;;;;;;10.13;8.40;;;;;;;;;;4951425;28;20180;-59
2021/06/24 13:21:54;;;;;;;9.37;8.57;;;;;;;;;;4946935;29;20307;-58
2021/06/24 13:24:20;;;;;;;8.60;7.80;;;;;;;;;;4953246;29;20207;-59
2021/06/24 13:26:47;;;;;;;8.87;7.97;;;;;;;;;;4955484;28;20179;-58
2021/06/24 13:29:17;;;;;;;8.33;7.53;;;;;;;;;;4972368;28;20246;-60
2021/06/24 13:31:44;;;;;;;8.33;7.63;;;;;;;;;;4973579;28;20175;-61
2021/06/24 13:34:14;;;;;;;8.90;8.20;;;;;;;;;;4971155;28;20197;-59
2021/06/24 13:36:41;;;;;;;9.53;8.53;;;;;;;;;;4970331;28;20179;-59
2021/06/24 13:39:08;;;;;;;8.70;7.87;;;;;;;;;;4971854;28;20180;-59
2021/06/24 13:41:35;;;;;;;8.97;7.90;;;;;;;;;;4971833;28;20186;-59
2021/06/24 13:44:03;;;;;;;10.30;8.60;;;;;;;;;;4969652;28;20747;-61
2021/06/24 13:46:30;;;;;;;8.70;8.00;;;;;;;;;;4971042;28;20178;-59
2021/06/24 13:48:56;;;;;;;9.27;8.47;;;;;;;;;;4973677;28;20529;-58
2021/06/24 13:51:22;;;;;;;10.53;7.83;;;;;;;;;;4970092;28;20179;-58
2021/06/24 13:53:48;;;;;;;9.13;8.33;;;;;;;;;;4970658;28;20286;-59
2021/06/24 13:56:14;;;;;;;9.43;8.43;;;;;;;;;;4971697;28;20749;-60
2021/06/24 13:58:40;;;;;;;9.30;8.47;;;;;;;;;;4950492;28;20217;-58
2021/06/24 14:01:06;;;;;;;8.80;8.07;;;;;;;;;;4970620;28;20182;-58
2021/06/24 14:03:34;;;;;;;9.37;8.37;;;;;;;;;;4953503;28;20226;-59
2021/06/24 14:06:00;;;;;;;8.80;8.00;;;;;;;;;;4970619;28;20178;-59
2021/06/24 14:08:26;;;;;;;9.07;8.13;;;;;;;;;;4971243;28;20218;-58
2021/06/24 14:10:52;;;;;;;9.43;8.60;;;;;;;;;;4971959;28;20179;-59
2021/06/24 14:13:18;;;;;;;10.73;9.73;;;;;;;;;;4970168;28;20185;-59
2021/06/24 14:15:44;;;;;;;10.30;9.40;;;;;;;;;;4972019;28;20249;-57
2021/06/24 14:18:11;;;;;;;9.67;8.67;;;;;;;;;;4970130;28;20189;-57
2021/06/24 14:20:37;;;;;;;9.80;9.00;;;;;;;;;;4971255;28;20193;-57
2021/06/24 14:23:03;;;;;;;9.93;8.97;;;;;;;;;;4970779;28;20204;-57
2021/06/24 14:25:29;;;;;;;8.93;8.20;;;;;;;;;;4965990;28;20204;-59
2021/06/24 14:27:55;;;;;;;10.37;9.20;;;;;;;;;;4968501;28;20188;-56
2021/06/24 14:30:21;;;;;;;8.10;7.40;;;;;;;;;;4968267;28;20182;-57
2021/06/24 14:32:48;;;;;;;8.87;8.17;;;;;;;;;;4969536;28;20197;-56
2021/06/24 14:35:14;;;;;;;9.30;8.47;;;;;;;;;;4968878;28;20181;-58
2021/06/24 14:37:40;;;;;;;8.57;7.83;;;;;;;;;;4973697;28;20197;-59
2021/06/24 14:40:06;;;;;;;9.17;8.30;;;;;;;;;;4969321;28;20191;-58
2021/06/24 14:42:32;;;;;;;9.37;8.57;;;;;;;;;;4964632;28;20279;-59
2021/06/24 14:44:58;;;;;;;8.50;7.80;;;;;;;;;;4969680;28;20187;-57
2021/06/24 14:47:24;;;;;;;9.03;8.23;;;;;;;;;;4971526;28;20264;-56
2021/06/24 14:49:51;;;;;;;8.83;7.73;;;;;;;;;;4969896;28;20268;-58